Time;durP1;ratioP1;P1;durP2;ratioP2;P2;SDS_P1;SDS_P2;PMS_P1;PMS_P2;Temp;Humidity;BMP_temperature;BMP_pressure;BME280_temperature;BME280_humidity;BME280_pressure;Samples;Min_cycle;Max_cycle;Signal;HPM_P1;HPM_P2
2022/07/07 00:00:11;;;;;;;7.47;3.40;;;;;;;17.16;80.06;101294.19;690942;28;1376;-44
2022/07/07 00:00:31;;;;;;;5.80;3.20;;;;;;;17.16;79.93;101292.38;687388;28;1955;-44
2022/07/07 00:00:52;;;;;;;5.57;3.13;;;;;;;17.17;80.60;101288.00;687900;28;1190;-43
2022/07/07 00:01:12;;;;;;;4.82;2.85;;;;;;;17.14;81.04;101286.28;687724;28;973;-43
2022/07/07 00:01:33;;;;;;;5.50;2.80;;;;;;;17.12;80.73;101292.50;687586;28;895;-45
2022/07/07 00:01:53;;;;;;;6.38;2.90;;;;;;;17.10;80.62;101289.91;687251;28;1194;-43
2022/07/07 00:02:13;;;;;;;6.20;3.00;;;;;;;17.08;81.24;101290.84;688161;28;1135;-44
2022/07/07 00:02:34;;;;;;;6.70;3.00;;;;;;;17.09;80.93;101287.31;690307;28;4363;-43
2022/07/07 00:02:54;;;;;;;5.53;2.90;;;;;;;17.08;80.93;101290.84;690769;28;1147;-43
2022/07/07 00:03:15;;;;;;;5.70;3.20;;;;;;;17.10;80.79;101291.66;690309;28;1038;-44
2022/07/07 00:03:35;;;;;;;6.93;3.00;;;;;;;17.09;81.05;101289.94;688263;28;1143;-44
2022/07/07 00:03:57;;;;;;;6.30;3.10;;;;;;;17.09;80.91;101295.22;687655;28;1072;-42
2022/07/07 00:04:17;;;;;;;7.88;3.30;;;;;;;17.07;80.74;101289.09;690551;28;971;-44
2022/07/07 00:04:37;;;;;;;6.87;3.30;;;;;;;17.04;80.63;101290.00;690793;28;1254;-43
2022/07/07 00:04:58;;;;;;;8.02;3.30;;;;;;;17.05;80.62;101288.28;690776;28;781;-44
2022/07/07 00:05:18;;;;;;;7.77;3.30;;;;;;;17.04;81.14;101289.16;690450;28;4307;-43
2022/07/07 00:05:39;;;;;;;8.68;3.40;;;;;;;17.02;81.58;101290.06;690855;28;998;-43
2022/07/07 00:06:00;;;;;;;8.60;3.40;;;;;;;17.02;81.40;101292.69;690781;28;1202;-43
2022/07/07 00:06:20;;;;;;;5.40;3.30;;;;;;;17.08;81.15;101290.84;690328;28;1007;-44
2022/07/07 00:06:41;;;;;;;5.40;3.20;;;;;;;17.10;81.01;101287.25;691184;28;1142;-43
2022/07/07 00:07:01;;;;;;;6.72;3.15;;;;;;;17.10;82.52;101289.91;690401;28;1234;-43
2022/07/07 00:07:21;;;;;;;5.93;3.17;;;;;;;17.10;82.58;101291.66;687393;28;1129;-43
2022/07/07 00:07:42;;;;;;;6.97;3.10;;;;;;;17.08;82.07;101293.47;687487;28;1265;-44
2022/07/07 00:08:02;;;;;;;6.50;3.27;;;;;;;17.09;81.49;101289.94;686776;28;1095;-43
2022/07/07 00:08:23;;;;;;;6.07;3.15;;;;;;;17.19;80.99;101283.53;688020;28;4396;-43
2022/07/07 00:08:44;;;;;;;6.03;3.20;;;;;;;17.22;81.20;101288.75;687347;28;1569;-43
2022/07/07 00:09:04;;;;;;;5.60;3.03;;;;;;;17.20;81.37;101285.28;687971;28;1234;-44
2022/07/07 00:09:26;;;;;;;5.87;3.20;;;;;;;17.18;80.97;101284.44;690501;28;1431;-45
2022/07/07 00:09:46;;;;;;;6.80;3.35;;;;;;;17.17;80.75;101288.00;690642;28;1300;-43
2022/07/07 00:10:07;;;;;;;6.72;3.10;;;;;;;17.14;80.74;101285.41;687025;28;1462;-43
2022/07/07 00:10:27;;;;;;;7.20;3.30;;;;;;;17.13;80.76;101287.19;687013;28;1499;-43
2022/07/07 00:10:48;;;;;;;4.87;3.20;;;;;;;17.13;81.08;101281.03;689815;28;3266;-43
2022/07/07 00:11:08;;;;;;;5.70;3.25;;;;;;;17.14;81.09;101282.75;690770;28;1214;-45
2022/07/07 00:11:29;;;;;;;6.00;3.20;;;;;;;17.16;81.12;101281.81;689999;28;4512;-44
2022/07/07 00:11:49;;;;;;;5.40;3.15;;;;;;;17.16;81.21;101278.31;690754;28;1174;-44
2022/07/07 00:12:09;;;;;;;5.33;3.27;;;;;;;17.13;81.19;101283.69;690158;28;1396;-44
2022/07/07 00:12:30;;;;;;;6.37;3.60;;;;;;;17.13;81.02;101281.03;689974;28;1472;-43
2022/07/07 00:12:50;;;;;;;5.90;3.30;;;;;;;17.12;80.69;101279.28;690305;28;1253;-43
2022/07/07 00:13:11;;;;;;;7.40;3.60;;;;;;;17.10;80.96;101283.72;689829;28;981;-43
2022/07/07 00:13:31;;;;;;;7.10;3.70;;;;;;;17.08;81.06;101278.47;693575;28;1202;-43
2022/07/07 00:13:52;;;;;;;5.67;3.40;;;;;;;17.09;81.33;101279.38;693382;28;1180;-43
2022/07/07 00:14:12;;;;;;;5.72;3.38;;;;;;;17.07;81.62;101281.16;692885;28;1252;-43
2022/07/07 00:14:33;;;;;;;5.50;3.58;;;;;;;17.09;81.38;101276.72;692120;28;4296;-43
2022/07/07 00:14:53;;;;;;;7.10;3.57;;;;;;;17.11;81.42;101274.91;693362;28;1111;-43
2022/07/07 00:15:14;;;;;;;6.60;3.25;;;;;;;17.10;81.13;101279.34;692792;28;1043;-45
2022/07/07 00:15:34;;;;;;;5.63;3.30;;;;;;;17.09;81.17;101279.38;690987;28;894;-44
2022/07/07 00:15:55;;;;;;;6.17;3.60;;;;;;;17.11;81.44;101282.84;690455;28;1981;-44
2022/07/07 00:16:16;;;;;;;7.03;3.70;;;;;;;17.13;81.79;101281.03;690422;28;1113;-44
2022/07/07 00:16:37;;;;;;;5.75;3.47;;;;;;;17.16;81.12;101275.69;690178;28;1178;-44
2022/07/07 00:16:57;;;;;;;5.93;3.40;;;;;;;17.17;81.01;101277.44;690681;28;1236;-43
2022/07/07 00:17:17;;;;;;;7.30;4.03;;;;;;;17.18;80.76;101273.88;689956;28;4749;-43
2022/07/07 00:17:38;;;;;;;8.30;4.23;;;;;;;17.22;80.73;101272.03;692514;28;1204;-43
2022/07/07 00:17:59;;;;;;;5.97;3.90;;;;;;;17.31;80.76;101275.34;693901;28;1134;-44
2022/07/07 00:18:19;;;;;;;5.90;3.80;;;;;;;17.32;80.34;101277.06;692521;28;1083;-44
2022/07/07 00:18:39;;;;;;;7.53;3.75;;;;;;;17.31;81.00;101275.34;687424;28;1246;-46
2022/07/07 00:19:01;;;;;;;6.83;3.80;;;;;;;17.32;80.64;101274.44;687992;28;1131;-44
2022/07/07 00:19:21;;;;;;;7.35;3.80;;;;;;;17.30;80.71;101278.00;687214;28;1082;-45
2022/07/07 00:19:42;;;;;;;7.40;3.83;;;;;;;17.28;80.28;101270.13;687907;28;1218;-44
2022/07/07 00:20:03;;;;;;;6.13;4.10;;;;;;;17.33;80.42;101272.66;687629;28;1132;-43
2022/07/07 00:20:24;;;;;;;6.10;3.90;;;;;;;17.31;80.29;101270.03;687882;28;4313;-43
2022/07/07 00:20:44;;;;;;;6.90;3.80;;;;;;;17.30;80.84;101275.38;690183;28;1483;-42
2022/07/07 00:21:05;;;;;;;6.27;3.90;;;;;;;17.33;81.39;101273.53;690685;28;1525;-43
2022/07/07 00:21:25;;;;;;;5.10;3.53;;;;;;;17.29;81.33;101266.59;690383;28;1213;-43
2022/07/07 00:21:46;;;;;;;5.93;3.70;;;;;;;17.34;80.96;101269.09;690879;28;915;-44
2022/07/07 00:22:06;;;;;;;7.18;4.03;;;;;;;17.34;80.81;101274.41;690542;28;1375;-43
2022/07/07 00:22:26;;;;;;;7.20;4.10;;;;;;;17.35;80.19;101271.72;690637;28;1091;-43
2022/07/07 00:22:47;;;;;;;7.17;3.90;;;;;;;17.36;80.07;101265.53;689432;28;1192;-44
2022/07/07 00:23:07;;;;;;;7.20;3.80;;;;;;;17.36;80.86;101265.53;690683;28;1339;-45
2022/07/07 00:23:27;;;;;;;7.90;3.80;;;;;;;17.33;81.13;101268.25;692279;28;4282;-46
2022/07/07 00:23:48;;;;;;;5.43;3.53;;;;;;;17.29;81.15;101271.88;690719;28;1108;-44
2022/07/07 00:24:09;;;;;;;6.43;3.83;;;;;;;17.26;81.18;101268.41;689783;28;1274;-45
2022/07/07 00:24:29;;;;;;;7.70;3.70;;;;;;;17.24;81.19;101267.56;690305;28;1133;-44
2022/07/07 00:24:49;;;;;;;7.70;3.70;;;;;;;17.23;81.45;101274.63;690131;28;1452;-43
2022/07/07 00:25:10;;;;;;;6.70;3.67;;;;;;;17.22;81.72;101275.53;691314;28;1408;-43
2022/07/07 00:25:31;;;;;;;5.93;3.70;;;;;;;17.28;81.42;101269.22;689559;28;1252;-43
2022/07/07 00:25:51;;;;;;;5.57;3.70;;;;;;;17.36;80.70;101269.94;690487;28;1150;-43
2022/07/07 00:26:12;;;;;;;7.15;3.88;;;;;;;17.32;81.05;101271.78;692248;28;1142;-42
2022/07/07 00:26:33;;;;;;;5.70;3.57;;;;;;;17.31;80.95;101274.47;693149;28;4553;-43
2022/07/07 00:26:53;;;;;;;5.68;3.50;;;;;;;17.28;81.07;101280.69;693140;28;1261;-44
2022/07/07 00:27:13;;;;;;;5.83;3.60;;;;;;;17.25;80.94;101267.56;690104;28;1565;-44
2022/07/07 00:27:34;;;;;;;6.67;3.80;;;;;;;17.24;81.33;101273.75;690373;28;1305;-43
2022/07/07 00:27:54;;;;;;;5.63;4.00;;;;;;;17.21;80.99;101271.19;685303;28;1281;-43
2022/07/07 00:28:15;;;;;;;6.18;3.90;;;;;;;17.27;81.45;101278.94;686146;28;1112;-44
2022/07/07 00:28:35;;;;;;;9.50;4.00;;;;;;;17.30;81.08;101272.72;684434;28;1136;-45
2022/07/07 00:28:56;;;;;;;8.40;4.40;;;;;;;17.29;81.00;101277.16;682430;28;1390;-44
2022/07/07 00:29:16;;;;;;;6.90;4.03;;;;;;;17.29;80.85;101274.50;685788;28;4595;-45
2022/07/07 00:29:36;;;;;;;7.30;4.00;;;;;;;17.31;80.88;101275.34;687028;28;1291;-45
2022/07/07 00:29:57;;;;;;;7.27;4.20;;;;;;;17.30;80.50;101278.88;689684;28;1312;-42
2022/07/07 00:30:17;;;;;;;6.53;4.03;;;;;;;17.26;80.76;101281.63;689162;28;1095;-45
2022/07/07 00:30:37;;;;;;;6.93;4.10;;;;;;;17.25;80.75;101269.31;690362;28;1269;-43
2022/07/07 00:30:58;;;;;;;7.13;3.97;;;;;;;17.21;81.32;101279.09;690002;28;1245;-43
2022/07/07 00:31:18;;;;;;;6.75;4.00;;;;;;;17.22;81.17;101278.16;689434;28;1171;-44
2022/07/07 00:31:39;;;;;;;5.10;3.80;;;;;;;17.24;80.75;101276.38;690622;28;1313;-45
2022/07/07 00:31:59;;;;;;;5.67;3.60;;;;;;;17.27;80.95;101278.09;690751;28;1270;-43
2022/07/07 00:32:19;;;;;;;5.93;3.77;;;;;;;17.24;81.19;101273.75;689001;28;4492;-43
2022/07/07 00:32:40;;;;;;;6.13;3.77;;;;;;;17.23;80.89;101282.56;690384;28;1273;-45
2022/07/07 00:33:00;;;;;;;4.90;3.45;;;;;;;17.22;80.65;101275.53;690815;28;1214;-43
2022/07/07 00:33:21;;;;;;;5.37;3.80;;;;;;;17.21;81.12;101273.81;688952;28;1167;-43
2022/07/07 00:33:42;;;;;;;6.43;4.25;;;;;;;17.21;81.21;101272.94;689930;28;1424;-45
2022/07/07 00:34:02;;;;;;;6.55;3.92;;;;;;;17.26;81.03;101271.06;689716;28;1293;-44
2022/07/07 00:34:22;;;;;;;6.80;3.80;;;;;;;17.24;81.17;101268.47;692379;28;1300;-43
2022/07/07 00:34:43;;;;;;;6.25;3.92;;;;;;;17.23;81.12;101274.63;692564;28;1297;-43
2022/07/07 00:35:04;;;;;;;6.53;3.83;;;;;;;17.22;81.30;101274.66;690574;28;1240;-44
2022/07/07 00:35:24;;;;;;;6.05;3.88;;;;;;;17.20;81.48;101266.78;690293;28;4723;-46
2022/07/07 00:35:45;;;;;;;6.05;3.75;;;;;;;17.29;81.59;101266.59;690018;28;1379;-44
2022/07/07 00:36:07;;;;;;;6.47;3.67;;;;;;;17.34;80.93;101269.97;690205;28;1918;-43
2022/07/07 00:36:27;;;;;;;6.75;3.60;;;;;;;17.35;80.79;101270.84;690397;28;1286;-43
2022/07/07 00:36:48;;;;;;;6.25;3.50;;;;;;;17.32;81.14;101266.50;691657;28;848;-43
2022/07/07 00:37:08;;;;;;;6.17;3.50;;;;;;;17.32;81.20;101266.50;690241;28;1297;-44
2022/07/07 00:37:29;;;;;;;5.78;3.50;;;;;;;17.31;81.61;101270.03;689863;28;1381;-43
2022/07/07 00:37:49;;;;;;;6.10;3.47;;;;;;;17.30;81.09;101268.31;689761;28;1490;-43
2022/07/07 00:38:09;;;;;;;5.87;3.53;;;;;;;17.30;81.09;101264.81;690116;28;1376;-44
2022/07/07 00:38:30;;;;;;;6.63;3.73;;;;;;;17.25;81.60;101264.91;689390;28;5255;-43
2022/07/07 00:38:50;;;;;;;6.67;3.73;;;;;;;17.22;81.32;101267.59;690626;28;1506;-42
2022/07/07 00:39:12;;;;;;;6.77;3.97;;;;;;;17.21;80.97;101263.25;689478;28;1262;-43
2022/07/07 00:39:32;;;;;;;5.75;3.80;;;;;;;17.19;81.18;101267.69;689986;28;1345;-43
2022/07/07 00:39:52;;;;;;;4.75;3.63;;;;;;;17.17;81.42;101262.44;692947;28;1277;-43
2022/07/07 00:40:13;;;;;;;8.87;3.67;;;;;;;17.16;81.17;101265.97;692526;28;1130;-43
2022/07/07 00:40:33;;;;;;;9.73;3.50;;;;;;;17.16;81.39;101265.97;693182;28;1298;-43
2022/07/07 00:40:54;;;;;;;7.03;3.55;;;;;;;17.15;81.96;101260.72;693241;28;1249;-43
2022/07/07 00:41:15;;;;;;;5.43;3.38;;;;;;;17.19;82.28;101257.97;690976;28;4492;-43
2022/07/07 00:41:36;;;;;;;6.57;3.70;;;;;;;17.28;82.09;101254.28;690328;28;1324;-43
2022/07/07 00:41:56;;;;;;;6.13;3.60;;;;;;;17.27;81.40;101252.53;690756;28;1218;-43
2022/07/07 00:42:17;;;;;;;5.73;3.20;;;;;;;17.26;81.74;101261.34;692762;28;1245;-45
2022/07/07 00:42:37;;;;;;;5.40;3.03;;;;;;;17.31;81.74;101254.19;692880;28;1238;-46
2022/07/07 00:42:57;;;;;;;6.43;3.37;;;;;;;17.36;81.66;101252.31;692624;28;1268;-43
2022/07/07 00:43:18;;;;;;;6.73;3.50;;;;;;;17.36;81.52;101247.03;692830;28;1170;-45
2022/07/07 00:43:41;;;;;;;8.38;3.53;;;;;;;17.33;81.44;101252.41;692439;28;1321;-44
2022/07/07 00:44:03;;;;;;;6.50;3.60;;;;;;;17.32;80.96;101250.66;691999;28;1226;-43
2022/07/07 00:44:23;;;;;;;5.20;3.55;;;;;;;17.27;81.24;101255.16;692478;28;4456;-43
2022/07/07 00:44:44;;;;;;;5.93;3.60;;;;;;;17.22;81.30;101253.53;692291;28;1030;-43
2022/07/07 00:45:06;;;;;;;5.82;3.50;;;;;;;17.20;81.55;101256.22;692999;28;1215;-45
2022/07/07 00:45:26;;;;;;;5.53;3.60;;;;;;;17.26;81.31;101244.63;689774;28;1332;-43
2022/07/07 00:45:48;;;;;;;5.20;3.50;;;;;;;17.29;80.93;101247.19;689804;28;1467;-43
2022/07/07 00:46:09;;;;;;;5.07;3.38;;;;;;;17.26;81.41;101245.50;684631;28;1334;-44
2022/07/07 00:46:42;;;;;;;5.63;3.83;;;;;;;17.33;82.05;101241.81;685361;28;849;-43
2022/07/07 00:47:05;;;;;;;5.55;3.60;;;;;;;17.36;81.78;101244.38;684268;28;1416;-44
2022/07/07 00:47:26;;;;;;;5.28;3.25;;;;;;;17.33;81.31;101240.94;686816;28;4547;-43
2022/07/07 00:47:47;;;;;;;5.47;3.30;;;;;;;17.28;81.80;101243.69;687943;28;1338;-43
2022/07/07 00:48:10;;;;;;;6.72;3.83;;;;;;;17.25;82.04;101238.50;689118;28;1462;-45
2022/07/07 00:48:33;;;;;;;6.85;3.67;;;;;;;17.24;82.02;101238.50;690421;28;1602;-43
2022/07/07 00:48:53;;;;;;;6.90;3.40;;;;;;;17.25;82.19;101234.97;689595;28;1233;-45
2022/07/07 00:49:16;;;;;;;6.55;3.40;;;;;;;17.25;82.36;101240.25;690115;28;1027;-44
2022/07/07 00:49:38;;;;;;;5.40;3.20;;;;;;;17.24;82.22;101236.75;690541;28;1262;-46
2022/07/07 00:49:58;;;;;;;5.30;3.30;;;;;;;17.41;81.47;101233.69;690257;28;1301;-44
2022/07/07 00:50:20;;;;;;;6.00;3.53;;;;;;;17.41;81.00;101235.47;689420;28;4307;-42
2022/07/07 00:50:42;;;;;;;7.32;3.50;;;;;;;17.38;80.93;101240.81;689115;28;1301;-44
2022/07/07 00:51:09;;;;;;;4.75;3.17;;;;;;;17.35;80.85;101234.72;688060;28;1270;-44
2022/07/07 00:51:29;;;;;;;4.95;3.20;;;;;;;17.33;81.24;101228.63;690420;28;1293;-43
2022/07/07 00:51:49;;;;;;;5.30;3.35;;;;;;;17.32;81.36;101233.91;690078;28;1361;-44
2022/07/07 00:52:11;;;;;;;5.67;3.30;;;;;;;17.26;81.76;101240.22;689387;28;4852;-45
2022/07/07 00:52:31;;;;;;;5.95;3.40;;;;;;;17.26;81.60;101228.78;689802;28;1235;-42
2022/07/07 00:52:53;;;;;;;5.73;3.43;;;;;;;17.23;81.95;101235.00;690243;28;1261;-43
2022/07/07 00:53:15;;;;;;;5.60;3.33;;;;;;;17.23;82.37;101234.16;689088;28;1132;-43
2022/07/07 00:53:36;;;;;;;6.15;3.20;;;;;;;17.26;81.65;101229.63;689608;28;5178;-44
2022/07/07 00:53:56;;;;;;;5.38;3.30;;;;;;;17.23;81.70;101237.66;687301;28;1298;-44
2022/07/07 00:54:17;;;;;;;4.95;3.13;;;;;;;17.24;82.11;101226.19;687140;28;1040;-44
2022/07/07 00:54:37;;;;;;;5.83;3.17;;;;;;;17.23;82.30;101227.06;687312;28;771;-45
2022/07/07 00:55:00;;;;;;;5.27;3.30;;;;;;;17.29;82.04;101229.59;687900;28;1267;-43
2022/07/07 00:55:20;;;;;;;6.35;3.30;;;;;;;17.29;81.78;101226.94;687154;28;1286;-44
2022/07/07 00:55:40;;;;;;;5.80;3.00;;;;;;;17.26;81.15;101237.56;687551;28;1271;-44
2022/07/07 00:56:01;;;;;;;5.72;3.10;;;;;;;17.22;81.41;101229.75;688883;28;1981;-45
2022/07/07 00:56:21;;;;;;;6.47;3.10;;;;;;;17.23;81.72;101227.06;689716;28;4300;-44
2022/07/07 00:56:42;;;;;;;6.33;3.30;;;;;;;17.21;82.30;101231.53;690806;28;1237;-43
2022/07/07 00:57:04;;;;;;;6.30;3.30;;;;;;;17.19;82.11;101226.28;690272;28;1034;-43
2022/07/07 00:57:26;;;;;;;5.60;3.30;;;;;;;17.22;82.22;101233.25;689593;28;1384;-44
2022/07/07 00:57:46;;;;;;;5.07;3.30;;;;;;;17.23;82.28;101228.88;692624;28;1351;-43
2022/07/07 00:58:07;;;;;;;7.13;3.30;;;;;;;17.26;82.08;101234.94;692587;28;1397;-43
2022/07/07 00:58:28;;;;;;;6.53;3.23;;;;;;;17.29;81.76;101234.00;692673;28;1599;-45
2022/07/07 00:58:48;;;;;;;5.65;3.33;;;;;;;17.26;81.92;101229.63;692819;28;1368;-44
2022/07/07 00:59:09;;;;;;;5.07;2.90;;;;;;;17.24;81.69;101228.81;692198;28;1389;-45
2022/07/07 00:59:29;;;;;;;5.07;3.10;;;;;;;17.21;81.72;101225.38;691869;28;4297;-43
2022/07/07 00:59:54;;;;;;;5.73;3.13;;;;;;;17.26;81.71;101229.63;690192;28;1407;-43
2022/07/07 01:00:15;;;;;;;5.97;3.10;;;;;;;17.25;82.33;101221.75;689323;28;1129;-42
2022/07/07 01:00:36;;;;;;;6.28;2.70;;;;;;;17.22;82.40;101221.84;690830;28;1067;-43
2022/07/07 01:00:56;;;;;;;6.77;2.97;;;;;;;17.19;82.12;101230.69;689744;28;1285;-42
2022/07/07 01:01:16;;;;;;;6.50;3.00;;;;;;;17.17;81.67;101225.44;689566;28;1059;-43
2022/07/07 01:01:39;;;;;;;5.23;2.90;;;;;;;17.16;81.92;101222.84;689888;28;1088;-43
2022/07/07 01:02:00;;;;;;;5.70;3.00;;;;;;;17.15;81.97;101221.97;689102;28;1242;-43
2022/07/07 01:02:21;;;;;;;4.95;3.15;;;;;;;17.15;82.14;101216.69;689405;28;4379;-45
2022/07/07 01:02:42;;;;;;;6.05;3.10;;;;;;;17.19;82.26;101225.41;687504;28;1298;-43
2022/07/07 01:03:03;;;;;;;4.82;3.33;;;;;;;17.16;82.21;101220.22;689640;28;1474;-43
2022/07/07 01:03:23;;;;;;;4.78;3.00;;;;;;;17.19;82.31;101223.63;690632;28;1312;-43
2022/07/07 01:03:44;;;;;;;5.97;3.10;;;;;;;17.25;82.25;101217.34;689878;28;1368;-44
2022/07/07 01:04:07;;;;;;;4.80;2.90;;;;;;;17.24;82.85;101220.91;687160;28;1187;-43
2022/07/07 01:04:28;;;;;;;4.60;2.80;;;;;;;17.21;82.24;101218.34;688624;28;1302;-46
2022/07/07 01:04:48;;;;;;;4.75;3.00;;;;;;;17.19;82.28;101215.69;689571;28;1198;-43
2022/07/07 01:05:09;;;;;;;5.27;3.00;;;;;;;17.18;81.75;101221.91;689719;28;1487;-43
2022/07/07 01:05:31;;;;;;;5.75;3.10;;;;;;;17.19;81.92;101223.63;689911;28;4437;-42
2022/07/07 01:05:53;;;;;;;5.03;2.70;;;;;;;17.21;81.79;101217.44;690559;28;1119;-44
2022/07/07 01:06:16;;;;;;;4.97;2.90;;;;;;;17.22;81.83;101222.69;691817;28;1381;-42
2022/07/07 01:06:37;;;;;;;4.40;2.80;;;;;;;17.21;81.95;101213.06;690413;28;1285;-43
2022/07/07 01:06:58;;;;;;;4.78;2.88;;;;;;;17.24;81.60;101220.91;689522;28;3711;-43
2022/07/07 01:07:19;;;;;;;4.45;2.88;;;;;;;17.22;81.94;101216.56;687294;28;1153;-43
2022/07/07 01:07:39;;;;;;;5.53;3.10;;;;;;;17.20;82.45;101221.88;687796;28;1242;-43
2022/07/07 01:08:02;;;;;;;4.88;2.63;;;;;;;17.24;82.14;101214.72;687243;28;1143;-42
2022/07/07 01:08:23;;;;;;;4.88;2.83;;;;;;;17.20;81.84;101216.59;683854;28;4457;-44
2022/07/07 01:08:43;;;;;;;5.80;3.20;;;;;;;17.19;82.01;101210.41;685503;28;1344;-45
2022/07/07 01:09:04;;;;;;;5.07;2.77;;;;;;;17.18;82.19;101216.63;686940;28;1378;-43
2022/07/07 01:09:25;;;;;;;4.93;2.88;;;;;;;17.20;82.16;101213.94;688254;28;1297;-42
2022/07/07 01:09:46;;;;;;;4.90;2.90;;;;;;;17.25;82.11;101211.19;689889;28;1261;-44
2022/07/07 01:10:07;;;;;;;5.57;2.75;;;;;;;17.31;81.77;101216.34;690187;28;1320;-43
2022/07/07 01:10:28;;;;;;;5.78;2.90;;;;;;;17.34;81.73;101211.84;689750;28;1254;-44
2022/07/07 01:10:48;;;;;;;5.00;2.85;;;;;;;17.30;81.44;101215.44;689620;28;1416;-43
2022/07/07 01:11:09;;;;;;;4.57;2.90;;;;;;;17.29;81.56;101207.56;690039;28;1592;-43
2022/07/07 01:11:48;;;;;;;4.50;2.80;;;;;;;17.31;82.03;101211.06;688371;28;4296;-42
2022/07/07 01:12:08;;;;;;;4.80;2.70;;;;;;;17.28;81.89;101219.03;689948;28;1436;-43
2022/07/07 01:12:36;;;;;;;6.50;3.33;;;;;;;17.32;81.81;101218.94;692493;28;1399;-43
2022/07/07 01:13:02;;;;;;;7.78;3.60;;;;;;;17.33;81.46;101211.88;692032;28;1265;-44
2022/07/07 01:13:22;;;;;;;5.85;2.50;;;;;;;17.28;82.62;101213.75;692976;28;1259;-45
2022/07/07 01:13:42;;;;;;;5.67;2.60;;;;;;;17.29;82.36;101218.13;692722;28;1265;-44
2022/07/07 01:14:03;;;;;;;5.97;2.73;;;;;;;17.30;82.09;101215.44;689731;28;1301;-43
2022/07/07 01:14:24;;;;;;;5.07;2.80;;;;;;;17.32;81.84;101211.00;689479;28;4466;-43
2022/07/07 01:14:45;;;;;;;6.28;2.80;;;;;;;17.33;82.03;101212.75;690015;28;1284;-43
2022/07/07 01:15:09;;;;;;;5.47;3.00;;;;;;;17.33;82.13;101212.75;689653;28;1407;-45
2022/07/07 01:15:30;;;;;;;5.70;3.03;;;;;;;17.27;81.85;101214.69;690008;28;1344;-43
2022/07/07 01:15:50;;;;;;;7.65;2.88;;;;;;;17.25;82.75;101212.06;690497;28;1389;-42
2022/07/07 01:16:10;;;;;;;5.90;2.70;;;;;;;17.30;83.10;101215.44;690091;28;1910;-43
2022/07/07 01:16:34;;;;;;;5.20;2.80;;;;;;;17.28;83.39;101214.63;690016;28;1404;-42
2022/07/07 01:16:54;;;;;;;5.60;2.53;;;;;;;17.29;82.62;101218.13;689169;28;1336;-43
2022/07/07 01:17:15;;;;;;;5.97;2.60;;;;;;;17.31;82.25;101214.56;690657;28;1152;-43
2022/07/07 01:17:36;;;;;;;4.90;2.60;;;;;;;17.30;82.44;101218.09;689889;28;4591;-43
2022/07/07 01:17:56;;;;;;;4.68;2.67;;;;;;;17.40;82.33;101213.44;689907;28;1249;-43
2022/07/07 01:18:16;;;;;;;4.77;2.80;;;;;;;17.35;82.32;101210.94;689274;28;944;-43
2022/07/07 01:18:37;;;;;;;5.30;2.67;;;;;;;17.31;82.69;101214.56;690087;28;1348;-45
2022/07/07 01:18:57;;;;;;;4.77;2.60;;;;;;;17.33;82.41;101215.41;690039;28;1273;-43
2022/07/07 01:19:19;;;;;;;5.78;2.60;;;;;;;17.33;82.22;101211.88;687482;28;1223;-44
2022/07/07 01:19:39;;;;;;;4.68;2.80;;;;;;;17.29;82.98;101213.75;689842;28;1298;-44
2022/07/07 01:20:01;;;;;;;4.85;2.70;;;;;;;17.28;82.88;101211.09;688116;28;1258;-42
2022/07/07 01:20:22;;;;;;;5.95;2.70;;;;;;;17.25;82.76;101206.78;684998;28;4559;-43
2022/07/07 01:20:46;;;;;;;5.43;2.60;;;;;;;17.23;82.83;101213.00;686368;28;1254;-43
2022/07/07 01:21:11;;;;;;;6.43;2.50;;;;;;;17.19;83.24;101206.91;687964;28;1239;-45
2022/07/07 01:21:36;;;;;;;5.70;2.60;;;;;;;17.20;83.32;101213.94;690130;28;1586;-44
2022/07/07 01:22:02;;;;;;;5.53;2.70;;;;;;;17.25;83.48;101209.44;689135;28;979;-44
2022/07/07 01:22:26;;;;;;;4.70;2.50;;;;;;;17.26;82.88;101213.78;690124;28;1357;-44
2022/07/07 01:22:48;;;;;;;5.30;2.60;;;;;;;17.30;83.64;101220.72;689510;28;1162;-43
2022/07/07 01:23:08;;;;;;;4.95;2.47;;;;;;;17.29;83.90;101218.13;689453;28;1424;-42
2022/07/07 01:23:29;;;;;;;4.10;2.30;;;;;;;17.27;83.81;101212.88;689320;28;4354;-43
2022/07/07 01:23:51;;;;;;;4.43;2.42;;;;;;;17.24;83.80;101212.09;689852;28;1424;-43
2022/07/07 01:24:12;;;;;;;4.70;2.65;;;;;;;17.23;83.93;101213.88;688729;28;1269;-44
2022/07/07 01:24:32;;;;;;;4.57;2.20;;;;;;;17.26;83.80;101213.78;690059;28;1270;-43
2022/07/07 01:24:53;;;;;;;4.37;2.40;;;;;;;17.32;84.11;101213.66;691137;28;1246;-43
2022/07/07 01:25:13;;;;;;;4.43;2.50;;;;;;;17.35;83.55;101207.44;689847;28;1174;-42
2022/07/07 01:25:33;;;;;;;4.33;2.20;;;;;;;17.36;83.54;101207.41;687507;28;1303;-43
2022/07/07 01:25:54;;;;;;;4.13;2.30;;;;;;;17.34;83.57;101211.84;687716;28;1298;-42
2022/07/07 01:26:14;;;;;;;5.60;2.40;;;;;;;17.32;83.61;101215.41;688605;28;1439;-43
2022/07/07 01:26:37;;;;;;;4.63;2.33;;;;;;;17.28;83.67;101214.63;687493;28;5775;-42
2022/07/07 01:27:13;;;;;;;4.22;2.33;;;;;;;17.25;84.23;101204.16;684170;28;1309;-45
2022/07/07 01:27:33;;;;;;;4.25;2.40;;;;;;;17.25;84.39;101208.53;686502;28;1274;-44
2022/07/07 01:27:54;;;;;;;4.07;2.50;;;;;;;17.36;84.08;101215.31;686300;28;1297;-44
2022/07/07 01:28:14;;;;;;;5.40;2.47;;;;;;;17.33;83.46;101211.88;688247;28;1162;-43
2022/07/07 01:28:34;;;;;;;4.80;2.43;;;;;;;17.32;83.61;101210.13;689446;28;1262;-43
2022/07/07 01:28:55;;;;;;;4.10;2.40;;;;;;;17.28;83.76;101209.34;689525;28;1357;-43
2022/07/07 01:29:15;;;;;;;3.83;2.27;;;;;;;17.25;84.02;101211.19;689502;28;4393;-43
2022/07/07 01:29:37;;;;;;;4.28;2.30;;;;;;;17.22;84.65;101211.25;689785;28;1278;-42
2022/07/07 01:29:58;;;;;;;4.10;2.40;;;;;;;17.22;84.82;101211.25;690049;28;947;-44
2022/07/07 01:30:19;;;;;;;4.00;2.30;;;;;;;17.21;84.78;101207.78;690836;28;1225;-44
2022/07/07 01:30:39;;;;;;;3.95;2.25;;;;;;;17.26;84.72;101213.78;690454;28;1266;-45
2022/07/07 01:31:00;;;;;;;4.77;2.40;;;;;;;17.24;84.88;101204.16;690429;28;1316;-45
2022/07/07 01:31:21;;;;;;;4.35;2.40;;;;;;;17.21;85.12;101210.41;690139;28;1059;-43
2022/07/07 01:31:41;;;;;;;4.27;2.37;;;;;;;17.19;85.27;101210.41;690357;28;817;-43
2022/07/07 01:32:02;;;;;;;4.40;2.35;;;;;;;17.19;85.20;101205.13;690392;28;1254;-45
2022/07/07 01:32:24;;;;;;;5.78;2.55;;;;;;;17.18;85.50;101205.19;689003;28;4394;-44
2022/07/07 01:32:44;;;;;;;5.80;2.20;;;;;;;17.19;85.71;101201.63;690224;28;1254;-44
2022/07/07 01:33:05;;;;;;;5.90;2.30;;;;;;;17.17;85.87;101203.47;689564;28;1313;-44
2022/07/07 01:33:25;;;;;;;5.88;2.35;;;;;;;17.16;85.33;101199.06;689847;28;1377;-43
2022/07/07 01:33:46;;;;;;;4.20;2.10;;;;;;;17.15;86.97;101207.91;690525;28;1335;-42
2022/07/07 01:34:06;;;;;;;4.13;2.17;;;;;;;17.10;86.98;101204.47;692988;28;1326;-43
2022/07/07 01:34:27;;;;;;;3.50;2.10;;;;;;;17.15;87.46;101203.47;692584;28;1230;-45
2022/07/07 01:34:48;;;;;;;4.23;2.20;;;;;;;17.21;86.30;101209.53;693391;28;1388;-44
2022/07/07 01:35:10;;;;;;;4.40;2.30;;;;;;;17.16;86.12;101209.63;692568;28;1254;-43
2022/07/07 01:35:30;;;;;;;4.35;2.30;;;;;;;17.14;86.11;101208.78;692050;28;4294;-45
2022/07/07 01:35:50;;;;;;;4.73;2.33;;;;;;;17.12;86.48;101210.63;692814;28;1383;-43
2022/07/07 01:36:14;;;;;;;4.82;2.50;;;;;;;17.20;86.41;101208.66;692570;28;1918;-43
2022/07/07 01:36:34;;;;;;;5.35;2.33;;;;;;;17.22;86.48;101206.84;692780;28;1195;-44
2022/07/07 01:36:55;;;;;;;4.77;2.10;;;;;;;17.21;86.29;101205.13;689925;28;942;-43
2022/07/07 01:37:17;;;;;;;3.92;2.10;;;;;;;17.18;86.37;101207.81;689207;28;1197;-42
2022/07/07 01:37:37;;;;;;;3.97;2.25;;;;;;;17.25;85.97;101209.44;688430;28;1238;-43
2022/07/07 01:37:57;;;;;;;4.37;2.20;;;;;;;17.25;85.29;101209.44;689067;28;1380;-43
2022/07/07 01:38:18;;;;;;;3.85;2.30;;;;;;;17.22;86.06;101211.25;689958;28;5381;-44
2022/07/07 01:38:38;;;;;;;4.23;2.37;;;;;;;17.19;87.02;101210.41;690322;28;1269;-44
2022/07/07 01:38:58;;;;;;;3.97;2.20;;;;;;;17.29;86.78;101197.88;690301;28;1288;-44
2022/07/07 01:39:19;;;;;;;4.30;2.35;;;;;;;17.32;86.21;101211.00;690553;28;1095;-45
2022/07/07 01:39:41;;;;;;;4.63;2.47;;;;;;;17.30;86.54;101204.03;690076;28;1123;-42
2022/07/07 01:40:02;;;;;;;5.78;2.30;;;;;;;17.32;86.39;101204.84;689534;28;1308;-44
2022/07/07 01:40:23;;;;;;;4.30;2.15;;;;;;;17.39;85.92;101203.81;689233;28;1390;-43